MID weather

Licenciado Manuel Crescencio Rejon Int Airport
Mérida, Yucatán, Mexico

Public forecast

Using degrees Celsius for public forecast. Weather courtesy of forecast.io.

Current aviation weather report (METAR) for Licenciado Manuel Crescencio Rejon Int Airport

Retrieved 2020/01/24 01:41 UTC (0 seconds ago):

MMMD 240141Z 05004KT 7SM SKC 21/16 A2996

Aviation forecast (TAF) for Licenciado Manuel Crescencio Rejon Int Airport

Retrieved 2020-01-24 00:17 UTC (1 hour ago):

TAF MMMD 232312Z 2400/2506 03010KT P6SM SCT020 TX29/2421Z TN15/2412Z FM241800 01014KT P6SM BKN020 BKN250 FM250500 35010KT P6SM SCT020 SCT250